createdAt,value
2018-04-14T00:01:10.790Z,17.17
2018-04-14T00:03:37.220Z,17.12
2018-04-14T00:06:03.652Z,17.05
2018-04-14T00:08:30.162Z,17.00
2018-04-14T00:10:56.658Z,16.98
2018-04-14T00:13:23.132Z,16.94
2018-04-14T00:15:49.685Z,16.97
2018-04-14T00:18:16.210Z,16.94
2018-04-14T00:20:42.765Z,16.97
2018-04-14T00:23:09.288Z,16.96
2018-04-14T00:25:35.799Z,16.94
2018-04-14T00:28:02.476Z,16.91
2018-04-14T00:30:28.888Z,16.88
2018-04-14T00:32:55.400Z,16.82
2018-04-14T00:35:21.888Z,16.81
2018-04-14T00:37:48.377Z,16.82
2018-04-14T00:40:14.792Z,16.85
2018-04-14T00:42:41.249Z,16.92
2018-04-14T00:45:07.793Z,16.91
2018-04-14T00:47:34.223Z,16.81
2018-04-14T00:50:00.620Z,16.73
2018-04-14T00:52:27.083Z,16.68
2018-04-14T00:54:53.608Z,16.61
2018-04-14T00:57:20.109Z,16.49
2018-04-14T00:59:46.602Z,16.45
2018-04-14T01:02:13.052Z,16.44
2018-04-14T01:04:39.519Z,16.55
2018-04-14T01:07:05.964Z,16.49
2018-04-14T01:09:32.506Z,16.43
2018-04-14T01:11:58.980Z,16.40
2018-04-14T01:14:25.384Z,16.46
2018-04-14T01:16:51.887Z,16.40
2018-04-14T01:19:18.477Z,16.34
2018-04-14T01:21:45.090Z,16.27
2018-04-14T01:24:11.563Z,16.16
2018-04-14T01:26:37.977Z,16.19
2018-04-14T01:29:04.476Z,16.27
2018-04-14T01:31:30.988Z,16.23
2018-04-14T01:33:57.432Z,16.12
2018-04-14T01:36:23.892Z,16.06
2018-04-14T01:38:50.364Z,15.97
2018-04-14T01:41:16.833Z,15.92
2018-04-14T01:43:43.258Z,15.85
2018-04-14T01:46:09.711Z,15.76
2018-04-14T01:48:36.261Z,15.81
2018-04-14T01:51:02.812Z,15.78
2018-04-14T01:53:29.264Z,15.82
2018-04-14T01:55:55.720Z,15.78
2018-04-14T01:58:22.149Z,15.77
2018-04-14T02:00:48.566Z,15.73
2018-04-14T02:03:15.126Z,15.72
2018-04-14T02:05:41.616Z,15.65
2018-04-14T02:08:08.188Z,15.64
2018-04-14T02:10:34.620Z,15.55
2018-04-14T02:13:01.080Z,15.53
2018-04-14T02:15:27.624Z,15.54
2018-04-14T02:17:54.084Z,15.54
2018-04-14T02:20:20.598Z,15.54
2018-04-14T02:22:47.072Z,15.59
2018-04-14T02:25:13.561Z,15.56
2018-04-14T02:27:40.120Z,15.61
2018-04-14T02:30:06.508Z,15.56
2018-04-14T02:32:32.956Z,15.55
2018-04-14T02:34:59.366Z,15.50
2018-04-14T02:37:25.824Z,15.51
2018-04-14T02:39:52.181Z,15.52
2018-04-14T02:42:18.622Z,15.42
2018-04-14T02:44:45.127Z,15.39
2018-04-14T02:47:11.569Z,15.35
2018-04-14T02:49:38.023Z,15.34
2018-04-14T02:52:04.451Z,15.31
2018-04-14T02:54:31.093Z,15.23
2018-04-14T02:56:57.522Z,15.18
2018-04-14T02:59:23.966Z,15.16
2018-04-14T03:01:50.397Z,15.17
2018-04-14T03:04:16.878Z,15.19
2018-04-14T03:06:43.352Z,15.16
2018-04-14T03:09:09.838Z,15.23
2018-04-14T03:11:36.304Z,15.19
2018-04-14T03:14:02.805Z,15.14
2018-04-14T03:16:29.268Z,15.12
2018-04-14T03:18:55.731Z,15.13
2018-04-14T03:21:22.209Z,15.11
2018-04-14T03:23:48.705Z,15.11
2018-04-14T03:26:15.202Z,15.09
2018-04-14T03:28:41.757Z,15.06
2018-04-14T03:31:08.194Z,15.09
2018-04-14T03:33:34.663Z,15.00
2018-04-14T03:36:01.200Z,15.04
2018-04-14T03:38:27.574Z,15.13
2018-04-14T03:40:53.959Z,15.09
2018-04-14T03:43:20.447Z,15.10
2018-04-14T03:45:46.892Z,15.08
2018-04-14T03:48:13.296Z,15.10
2018-04-14T03:50:39.825Z,15.07
2018-04-14T03:53:06.361Z,15.09
2018-04-14T03:55:32.806Z,15.04
2018-04-14T03:57:59.233Z,15.02
2018-04-14T04:00:25.732Z,15.01
2018-04-14T04:02:52.179Z,15.05
2018-04-14T04:05:18.656Z,15.12
2018-04-14T04:07:45.155Z,15.12
2018-04-14T04:10:11.741Z,15.18
2018-04-14T04:12:38.207Z,15.12
2018-04-14T04:15:04.704Z,15.25
2018-04-14T04:17:31.151Z,15.23
2018-04-14T04:20:09.597Z,15.33
2018-04-14T04:22:48.003Z,15.29
2018-04-14T04:25:38.263Z,15.35
2018-04-14T04:28:04.758Z,15.39
2018-04-14T04:30:31.148Z,15.34
2018-04-14T04:32:57.627Z,15.36
2018-04-14T04:35:23.874Z,15.49
2018-04-14T04:37:50.220Z,15.50
2018-04-14T04:40:16.626Z,15.59
2018-04-14T04:42:42.915Z,15.41
2018-04-14T04:45:09.256Z,15.47
2018-04-14T04:47:35.494Z,15.54
2018-04-14T04:50:01.892Z,15.61
2018-04-14T04:52:28.262Z,15.67
2018-04-14T04:54:54.588Z,15.61
2018-04-14T04:57:20.864Z,15.68
2018-04-14T04:59:47.185Z,15.74
2018-04-14T05:02:13.534Z,15.76
2018-04-14T05:04:39.917Z,15.85
2018-04-14T05:07:06.317Z,15.94
2018-04-14T05:09:32.615Z,16.25
2018-04-14T05:11:59.084Z,16.54
2018-04-14T05:14:25.428Z,16.68
2018-04-14T05:16:51.920Z,16.70
2018-04-14T05:19:18.332Z,16.76
2018-04-14T05:21:44.631Z,16.84
2018-04-14T05:24:11.039Z,17.02
2018-04-14T05:26:37.461Z,17.05
2018-04-14T05:29:03.776Z,17.06
2018-04-14T05:31:30.306Z,17.19
2018-04-14T05:33:56.719Z,17.25
2018-04-14T05:36:23.136Z,17.36
2018-04-14T05:38:49.417Z,17.40
2018-04-14T05:41:15.707Z,17.50
2018-04-14T05:43:42.077Z,17.53
2018-04-14T05:46:08.321Z,17.60
2018-04-14T05:48:34.915Z,17.81
2018-04-14T05:51:01.172Z,17.81
2018-04-14T05:56:00.397Z,17.75
2018-04-14T05:58:26.753Z,17.85
2018-04-14T06:00:53.031Z,17.80
2018-04-14T06:03:19.461Z,17.62
2018-04-14T06:05:45.746Z,17.65
2018-04-14T06:08:12.136Z,17.53
2018-04-14T06:10:38.497Z,17.37
2018-04-14T06:13:04.761Z,17.23
2018-04-14T06:15:31.101Z,17.34
2018-04-14T06:20:23.725Z,17.52
2018-04-14T06:22:49.995Z,17.59
2018-04-14T06:27:49.352Z,17.67
2018-04-14T06:30:15.697Z,17.71
2018-04-14T06:32:42.042Z,17.81
2018-04-14T06:35:08.471Z,18.03
2018-04-14T06:37:34.798Z,18.29
2018-04-14T06:40:01.143Z,18.49
2018-04-14T06:42:27.679Z,18.67
2018-04-14T06:44:54.117Z,18.84
2018-04-14T06:47:20.472Z,19.05
2018-04-14T06:49:46.784Z,19.15
2018-04-14T06:52:13.219Z,19.12
2018-04-14T06:54:39.502Z,19.17
2018-04-14T06:57:05.800Z,19.34
2018-04-14T06:59:32.149Z,19.36
2018-04-14T07:01:58.503Z,19.58
2018-04-14T07:04:24.876Z,19.56
2018-04-14T07:06:51.297Z,19.60
2018-04-14T07:09:17.605Z,19.39
2018-04-14T07:11:43.949Z,19.40
2018-04-14T07:14:10.287Z,19.30
2018-04-14T07:16:36.583Z,19.35
2018-04-14T07:19:03.252Z,19.48
2018-04-14T07:21:29.833Z,19.59
2018-04-14T07:23:56.196Z,19.57
2018-04-14T07:26:22.524Z,19.79
2018-04-14T07:28:48.812Z,19.91
2018-04-14T07:31:15.178Z,19.89
2018-04-14T07:33:41.450Z,19.90
2018-04-14T07:36:07.780Z,19.98
2018-04-14T07:38:34.061Z,20.10
2018-04-14T07:41:00.457Z,20.01
2018-04-14T07:43:26.825Z,19.98
2018-04-14T07:45:53.107Z,20.05
2018-04-14T07:48:19.373Z,20.08
2018-04-14T07:50:45.660Z,20.01
2018-04-14T07:53:11.957Z,20.07
2018-04-14T07:55:38.284Z,20.26
2018-04-14T07:58:04.667Z,20.32
2018-04-14T08:00:31.036Z,20.48
2018-04-14T08:02:57.476Z,20.52
2018-04-14T08:05:23.789Z,20.56
2018-04-14T08:07:50.095Z,20.69
2018-04-14T08:10:16.467Z,20.67
2018-04-14T08:12:42.847Z,20.61
2018-04-14T08:15:15.995Z,20.72
2018-04-14T08:17:42.337Z,20.70
2018-04-14T08:20:08.664Z,20.76
2018-04-14T08:22:34.968Z,20.81
2018-04-14T08:25:01.251Z,20.67
2018-04-14T08:27:27.568Z,20.74
2018-04-14T08:29:53.879Z,20.77
2018-04-14T08:32:20.209Z,20.84
2018-04-14T08:34:46.523Z,20.90
2018-04-14T08:37:12.921Z,20.86
2018-04-14T08:39:39.295Z,20.99
2018-04-14T08:42:05.599Z,21.28
2018-04-14T08:44:31.892Z,21.31
2018-04-14T08:46:58.235Z,21.43
2018-04-14T08:49:24.496Z,21.61
2018-04-14T08:51:50.816Z,21.70
2018-04-14T08:54:17.124Z,21.84
2018-04-14T08:56:43.521Z,21.73
2018-04-14T08:59:09.783Z,21.83
2018-04-14T09:01:36.101Z,21.91
2018-04-14T09:04:02.412Z,21.98
2018-04-14T09:06:28.829Z,22.04
2018-04-14T09:08:55.167Z,21.99
2018-04-14T09:11:21.441Z,21.87
2018-04-14T09:13:47.841Z,22.01
2018-04-14T09:16:14.176Z,22.10
2018-04-14T09:18:40.662Z,22.26
2018-04-14T09:21:07.019Z,22.23
2018-04-14T09:23:33.405Z,22.22
2018-04-14T09:25:59.787Z,22.39
2018-04-14T09:28:26.356Z,22.53
2018-04-14T09:30:52.723Z,22.57
2018-04-14T09:33:19.228Z,22.66
2018-04-14T09:35:45.645Z,22.63
2018-04-14T09:38:12.072Z,22.68
2018-04-14T09:40:38.568Z,22.75
2018-04-14T09:43:05.003Z,22.54
2018-04-14T09:45:31.452Z,22.46
2018-04-14T09:47:57.964Z,22.50
2018-04-14T09:50:24.404Z,22.55
2018-04-14T09:52:50.873Z,22.59
2018-04-14T09:55:17.352Z,22.61
2018-04-14T09:57:43.877Z,22.57
2018-04-14T10:00:10.397Z,22.75
2018-04-14T10:02:42.778Z,22.81
2018-04-14T10:05:09.168Z,22.81
2018-04-14T10:07:35.566Z,22.93
2018-04-14T10:10:01.967Z,22.99
2018-04-14T10:12:28.480Z,23.09
2018-04-14T10:14:54.973Z,23.08
2018-04-14T10:17:21.454Z,23.16
2018-04-14T10:19:47.836Z,23.13
2018-04-14T10:22:14.187Z,23.23
2018-04-14T10:24:40.684Z,23.20
2018-04-14T10:27:07.139Z,23.16
2018-04-14T10:29:33.593Z,23.26
2018-04-14T10:32:00.024Z,23.18
2018-04-14T10:34:33.478Z,23.15
2018-04-14T10:36:59.815Z,23.26
2018-04-14T10:39:26.178Z,23.29
2018-04-14T10:41:52.637Z,23.23
2018-04-14T10:44:19.064Z,23.22
2018-04-14T10:46:45.523Z,23.34
2018-04-14T10:49:12.028Z,23.32
2018-04-14T10:51:38.412Z,23.32
2018-04-14T10:54:04.780Z,23.36
2018-04-14T10:56:31.289Z,23.46
2018-04-14T10:58:57.683Z,23.45
2018-04-14T11:01:24.101Z,23.37
2018-04-14T11:03:50.632Z,23.26
2018-04-14T11:06:17.183Z,23.40
2018-04-14T11:08:43.578Z,23.49
2018-04-14T11:11:10.066Z,23.57
2018-04-14T11:13:36.440Z,23.72
2018-04-14T11:16:02.847Z,23.73
2018-04-14T11:18:29.333Z,23.79
2018-04-14T11:20:55.733Z,23.77
2018-04-14T11:23:22.186Z,23.64
2018-04-14T11:25:48.618Z,23.69
2018-04-14T11:28:15.060Z,23.70
2018-04-14T11:30:41.488Z,23.56
2018-04-14T11:33:07.991Z,23.59
2018-04-14T11:35:34.457Z,23.68
2018-04-14T11:38:00.886Z,23.71
2018-04-14T11:40:27.344Z,23.72
2018-04-14T11:42:53.764Z,23.77
2018-04-14T11:45:20.245Z,23.77
2018-04-14T11:47:46.696Z,23.84
2018-04-14T11:50:13.059Z,23.85
2018-04-14T11:52:39.491Z,24.02
2018-04-14T11:55:05.952Z,24.09
2018-04-14T11:57:32.467Z,24.19
2018-04-14T11:59:58.874Z,24.26
2018-04-14T12:02:25.396Z,24.31
2018-04-14T12:04:51.828Z,24.29
2018-04-14T12:07:18.361Z,24.25
2018-04-14T12:11:17.304Z,24.22
2018-04-14T12:13:43.831Z,24.34
2018-04-14T12:16:10.301Z,24.38
2018-04-14T12:18:36.905Z,24.40
2018-04-14T12:21:03.362Z,24.45
2018-04-14T12:23:29.813Z,24.47
2018-04-14T12:25:56.290Z,24.43
2018-04-14T12:28:22.761Z,24.44
2018-04-14T12:30:49.213Z,24.44
2018-04-14T12:33:15.626Z,24.51
2018-04-14T12:35:42.132Z,24.58
2018-04-14T12:38:08.524Z,24.62
2018-04-14T12:40:34.970Z,24.67
2018-04-14T12:43:02.114Z,24.67
2018-04-14T12:45:28.576Z,24.69
2018-04-14T12:47:54.988Z,24.73
2018-04-14T12:50:21.372Z,24.67
2018-04-14T12:52:47.795Z,24.65
2018-04-14T12:55:14.186Z,24.66
2018-04-14T12:57:40.631Z,24.62
2018-04-14T13:00:07.221Z,24.67
2018-04-14T13:02:33.717Z,24.73
2018-04-14T13:05:00.328Z,24.56
2018-04-14T13:07:26.780Z,24.36
2018-04-14T13:12:47.413Z,24.35
2018-04-14T13:15:13.848Z,24.12
2018-04-14T13:17:40.291Z,23.79
2018-04-14T13:20:06.640Z,23.83
2018-04-14T13:22:33.024Z,23.83
2018-04-14T13:24:59.573Z,23.95
2018-04-14T13:27:25.970Z,24.16
2018-04-14T13:29:52.525Z,24.09
2018-04-14T13:32:19.163Z,24.02
2018-04-14T13:34:45.834Z,24.04
2018-04-14T13:37:12.524Z,24.08
2018-04-14T13:39:39.076Z,24.24
2018-04-14T13:42:05.769Z,24.00
2018-04-14T13:44:32.244Z,24.11
2018-04-14T13:46:58.616Z,24.12
2018-04-14T13:49:25.080Z,24.18
2018-04-14T13:51:51.720Z,24.25
2018-04-14T13:54:18.234Z,24.05
2018-04-14T13:56:46.039Z,24.15
2018-04-14T13:59:13.124Z,24.21
2018-04-14T14:01:39.504Z,24.17
2018-04-14T14:04:06.114Z,24.06
2018-04-14T14:06:32.688Z,24.14
2018-04-14T14:08:59.155Z,24.32
2018-04-14T14:11:25.565Z,24.05
2018-04-14T14:13:52.212Z,24.07
2018-04-14T14:16:18.780Z,24.17
2018-04-14T14:18:45.332Z,24.27
2018-04-14T14:21:11.799Z,24.28
2018-04-14T14:23:38.208Z,24.37
2018-04-14T14:26:04.838Z,24.41
2018-04-14T14:28:31.430Z,24.47
2018-04-14T14:30:57.850Z,24.37
2018-04-14T14:33:24.350Z,24.28
2018-04-14T14:35:50.915Z,24.02
2018-04-14T14:38:17.508Z,23.90
2018-04-14T14:40:44.081Z,23.92
2018-04-14T14:43:10.664Z,23.80
2018-04-14T14:45:37.144Z,23.90
2018-04-14T14:48:03.656Z,23.95
2018-04-14T14:50:30.167Z,24.01
2018-04-14T14:52:56.824Z,23.89
2018-04-14T14:55:23.915Z,23.91
2018-04-14T14:57:50.388Z,23.77
2018-04-14T15:00:17.078Z,23.69
2018-04-14T15:02:43.859Z,23.88
2018-04-14T15:05:10.425Z,23.73
2018-04-14T15:07:36.879Z,23.73
2018-04-14T15:10:03.570Z,23.74
2018-04-14T15:12:30.094Z,23.75
2018-04-14T15:14:56.632Z,23.61
2018-04-14T15:17:23.169Z,23.67
2018-04-14T15:19:49.742Z,23.58
2018-04-14T15:22:16.283Z,23.59
2018-04-14T15:24:42.821Z,23.36
2018-04-14T15:27:09.229Z,23.39
2018-04-14T15:29:36.345Z,23.36
2018-04-14T15:32:03.136Z,23.40
2018-04-14T15:34:29.626Z,23.43
2018-04-14T15:36:56.140Z,23.18
2018-04-14T15:39:22.554Z,23.21
2018-04-14T15:41:49.028Z,23.14
2018-04-14T15:44:15.485Z,23.36
2018-04-14T15:46:41.892Z,23.36
2018-04-14T15:49:08.512Z,23.31
2018-04-14T15:51:35.305Z,23.38
2018-04-14T15:54:01.841Z,23.53
2018-04-14T15:56:28.317Z,23.56
2018-04-14T15:58:54.769Z,23.60
2018-04-14T16:01:21.135Z,23.73
2018-04-14T16:03:47.695Z,23.70
2018-04-14T16:06:14.229Z,23.68
2018-04-14T16:08:40.736Z,23.57
2018-04-14T16:11:07.328Z,23.53
2018-04-14T16:13:33.852Z,23.58
2018-04-14T16:16:00.297Z,23.56
2018-04-14T16:18:26.660Z,23.44
2018-04-14T16:20:53.091Z,23.30
2018-04-14T16:23:19.516Z,23.22
2018-04-14T16:25:45.960Z,23.11
2018-04-14T16:28:12.484Z,23.11
2018-04-14T16:30:38.944Z,23.24
2018-04-14T16:33:05.345Z,23.17
2018-04-14T16:35:31.785Z,23.05
2018-04-14T16:37:58.254Z,22.99
2018-04-14T16:40:24.654Z,22.75
2018-04-14T16:42:51.153Z,22.84
2018-04-14T16:45:17.533Z,22.87
2018-04-14T16:47:44.008Z,22.92
2018-04-14T16:50:10.377Z,22.98
2018-04-14T16:52:36.721Z,22.93
2018-04-14T16:55:03.280Z,22.88
2018-04-14T16:57:29.822Z,22.82
2018-04-14T16:59:56.327Z,22.89
2018-04-14T17:02:22.720Z,22.69
2018-04-14T17:04:49.153Z,22.46
2018-04-14T17:07:15.609Z,22.46
2018-04-14T17:09:42.071Z,22.43
2018-04-14T17:12:08.518Z,22.47
2018-04-14T17:14:34.942Z,22.64
2018-04-14T17:17:01.485Z,22.69
2018-04-14T17:19:27.918Z,22.60
2018-04-14T17:21:54.354Z,22.56
2018-04-14T17:24:20.732Z,22.44
2018-04-14T17:26:47.133Z,22.62
2018-04-14T17:29:13.552Z,22.61
2018-04-14T17:31:39.960Z,22.64
2018-04-14T17:34:06.428Z,22.48
2018-04-14T17:36:32.979Z,22.38
2018-04-14T17:38:59.384Z,22.34
2018-04-14T17:41:25.805Z,22.18
2018-04-14T17:43:52.237Z,22.31
2018-04-14T17:46:18.648Z,22.36
2018-04-14T17:48:45.063Z,22.37
2018-04-14T17:51:11.589Z,22.32
2018-04-14T17:53:38.081Z,22.47
2018-04-14T17:56:04.499Z,22.45
2018-04-14T17:58:30.921Z,22.41
2018-04-14T18:00:57.377Z,22.41
2018-04-14T18:03:23.850Z,22.53
2018-04-14T18:05:50.220Z,22.52
2018-04-14T18:08:16.668Z,22.52
2018-04-14T18:10:43.070Z,22.48
2018-04-14T18:13:09.474Z,22.59
2018-04-14T18:15:35.924Z,22.55
2018-04-14T18:18:02.313Z,22.52
2018-04-14T18:20:28.733Z,22.51
2018-04-14T18:22:55.111Z,22.39
2018-04-14T18:25:21.559Z,22.46
2018-04-14T18:27:48.064Z,22.37
2018-04-14T18:30:14.525Z,22.29
2018-04-14T18:32:40.964Z,22.39
2018-04-14T18:35:07.394Z,22.28
2018-04-14T18:37:33.776Z,22.34
2018-04-14T18:40:00.240Z,22.20
2018-04-14T18:42:26.683Z,22.09
2018-04-14T18:44:53.199Z,22.00
2018-04-14T18:47:19.587Z,22.01
2018-04-14T18:49:46.032Z,21.89
2018-04-14T18:52:12.506Z,21.76
2018-04-14T18:54:38.932Z,21.66
2018-04-14T18:57:05.323Z,21.67
2018-04-14T18:59:31.719Z,21.76
2018-04-14T19:01:58.192Z,21.64
2018-04-14T19:04:24.620Z,21.71
2018-04-14T19:06:51.033Z,21.78
2018-04-14T19:09:17.453Z,21.74
2018-04-14T19:11:43.851Z,21.75
2018-04-14T19:14:10.345Z,21.82
2018-04-14T19:16:36.760Z,21.70
2018-04-14T19:19:03.160Z,21.77
2018-04-14T19:21:29.591Z,21.89
2018-04-14T19:23:56.012Z,21.78
2018-04-14T19:26:22.428Z,21.60
2018-04-14T19:28:48.836Z,21.74
2018-04-14T19:31:15.232Z,21.74
2018-04-14T19:33:41.720Z,21.77
2018-04-14T19:36:08.260Z,21.51
2018-04-14T19:38:34.692Z,21.51
2018-04-14T19:41:01.171Z,21.48
2018-04-14T19:43:27.680Z,21.46
2018-04-14T19:45:54.094Z,21.55
2018-04-14T19:48:20.499Z,21.35
2018-04-14T19:50:46.904Z,21.32
2018-04-14T19:53:13.434Z,21.46
2018-04-14T19:55:39.970Z,21.39
2018-04-14T19:58:06.413Z,21.54
2018-04-14T20:00:32.868Z,21.35
2018-04-14T20:02:59.303Z,21.28
2018-04-14T20:05:25.785Z,21.53
2018-04-14T20:07:52.252Z,21.50
2018-04-14T20:10:18.780Z,21.53
2018-04-14T20:12:45.357Z,21.50
2018-04-14T20:15:11.781Z,21.48
2018-04-14T20:17:38.173Z,21.30
2018-04-14T20:20:04.636Z,21.38
2018-04-14T20:22:31.096Z,21.49
2018-04-14T20:24:57.543Z,21.37
2018-04-14T20:27:23.971Z,21.42
2018-04-14T20:29:57.481Z,21.46
2018-04-14T20:32:23.992Z,21.42
2018-04-14T20:34:50.429Z,21.45
2018-04-14T20:37:16.840Z,21.48
2018-04-14T20:39:43.391Z,21.25
2018-04-14T20:42:09.780Z,21.24
2018-04-14T20:44:36.188Z,21.25
2018-04-14T20:47:02.652Z,21.22
2018-04-14T20:49:29.055Z,21.16
2018-04-14T20:51:55.552Z,21.16
2018-04-14T20:54:22.012Z,21.14
2018-04-14T20:56:48.413Z,21.31
2018-04-14T20:59:14.889Z,21.13
2018-04-14T21:01:41.300Z,20.94
2018-04-14T21:04:07.777Z,20.85
2018-04-14T21:06:34.263Z,20.96
2018-04-14T21:09:00.615Z,20.99
2018-04-14T21:11:27.089Z,20.86
2018-04-14T21:13:53.507Z,20.97
2018-04-14T21:16:19.972Z,20.68
2018-04-14T21:18:46.364Z,20.70
2018-04-14T21:21:12.803Z,20.66
2018-04-14T21:23:39.189Z,20.44
2018-04-14T21:26:05.648Z,20.47
2018-04-14T21:28:32.111Z,20.54
2018-04-14T21:30:58.511Z,20.35
2018-04-14T21:33:24.916Z,20.49
2018-04-14T21:35:51.393Z,20.42
2018-04-14T21:38:17.959Z,20.60
2018-04-14T21:40:44.414Z,20.61
2018-04-14T21:43:10.905Z,20.53
2018-04-14T21:45:37.353Z,20.71
2018-04-14T21:48:03.776Z,20.59
2018-04-14T21:50:30.238Z,20.70
2018-04-14T21:52:56.700Z,20.71
2018-04-14T21:55:23.197Z,20.64
2018-04-14T21:57:49.583Z,20.73
2018-04-14T22:00:16.092Z,20.63
2018-04-14T22:02:42.575Z,20.65
2018-04-14T22:05:09.045Z,20.63
2018-04-14T22:07:35.434Z,20.64
2018-04-14T22:10:01.963Z,20.47
2018-04-14T22:12:28.825Z,20.55
2018-04-14T22:14:55.333Z,20.39
2018-04-14T22:17:21.705Z,20.20
2018-04-14T22:19:48.127Z,20.32
2018-04-14T22:22:14.545Z,20.17
2018-04-14T22:24:41.037Z,20.10
2018-04-14T22:27:07.648Z,20.13
2018-04-14T22:29:34.147Z,20.11
2018-04-14T22:32:00.629Z,20.21
2018-04-14T22:34:27.124Z,20.34
2018-04-14T22:36:53.584Z,20.22
2018-04-14T22:39:20.054Z,20.19
2018-04-14T22:41:46.588Z,20.02
2018-04-14T22:44:13.094Z,19.93
2018-04-14T22:46:39.670Z,20.07
2018-04-14T22:49:06.076Z,20.07
2018-04-14T22:51:32.562Z,20.01
2018-04-14T22:53:59.043Z,20.08
2018-04-14T22:56:25.439Z,20.19
2018-04-14T22:58:51.952Z,19.99
2018-04-14T23:01:18.417Z,19.88
2018-04-14T23:03:44.841Z,19.76
2018-04-14T23:06:11.389Z,19.84
2018-04-14T23:08:37.864Z,19.94
2018-04-14T23:11:04.385Z,19.93
2018-04-14T23:13:30.800Z,19.99
2018-04-14T23:15:57.281Z,20.03
2018-04-14T23:18:23.836Z,19.91
2018-04-14T23:20:50.373Z,19.87
2018-04-14T23:23:16.877Z,19.85
2018-04-14T23:25:43.490Z,19.94
2018-04-14T23:28:09.987Z,19.97
2018-04-14T23:30:36.489Z,19.98
2018-04-14T23:33:02.980Z,19.96
2018-04-14T23:35:29.400Z,20.07
2018-04-14T23:37:55.888Z,20.09
2018-04-14T23:40:22.348Z,20.05
2018-04-14T23:42:48.851Z,20.03
2018-04-14T23:45:15.289Z,20.13
2018-04-14T23:47:41.676Z,20.21
2018-04-14T23:50:08.204Z,20.18
2018-04-14T23:52:34.636Z,20.24
2018-04-14T23:55:01.129Z,20.31
2018-04-14T23:57:27.627Z,20.36
2018-04-14T23:59:54.025Z,20.37
